sensor_id;sensor_type;location;lat;lon;timestamp;temperature;humidity
43099;DHT22;28715;51.988;6.020;2023-09-19T00:00:45;17.70;96.60
43099;DHT22;28715;51.988;6.020;2023-09-19T00:03:12;17.60;96.50
43099;DHT22;28715;51.988;6.020;2023-09-19T00:05:38;17.70;96.60
43099;DHT22;28715;51.988;6.020;2023-09-19T00:08:04;17.60;96.40
43099;DHT22;28715;51.988;6.020;2023-09-19T00:10:30;17.60;96.60
43099;DHT22;28715;51.988;6.020;2023-09-19T00:12:57;17.60;96.50
43099;DHT22;28715;51.988;6.020;2023-09-19T00:15:24;17.60;96.60
43099;DHT22;28715;51.988;6.020;2023-09-19T00:17:51;17.60;96.60
43099;DHT22;28715;51.988;6.020;2023-09-19T00:20:18;17.60;96.70
43099;DHT22;28715;51.988;6.020;2023-09-19T00:22:43;17.60;96.80
43099;DHT22;28715;51.988;6.020;2023-09-19T00:25:09;17.60;97.00
43099;DHT22;28715;51.988;6.020;2023-09-19T00:27:35;17.60;97.10
43099;DHT22;28715;51.988;6.020;2023-09-19T00:30:04;17.60;97.30
43099;DHT22;28715;51.988;6.020;2023-09-19T00:32:30;17.60;97.60
43099;DHT22;28715;51.988;6.020;2023-09-19T00:34:55;17.60;97.90
43099;DHT22;28715;51.988;6.020;2023-09-19T00:37:21;17.50;98.10
43099;DHT22;28715;51.988;6.020;2023-09-19T00:39:47;17.50;98.30
43099;DHT22;28715;51.988;6.020;2023-09-19T00:42:18;17.50;98.30
43099;DHT22;28715;51.988;6.020;2023-09-19T00:44:44;17.50;98.30
43099;DHT22;28715;51.988;6.020;2023-09-19T00:47:10;17.50;98.30
43099;DHT22;28715;51.988;6.020;2023-09-19T00:49:40;17.50;98.10
43099;DHT22;28715;51.988;6.020;2023-09-19T00:52:06;17.50;98.00
43099;DHT22;28715;51.988;6.020;2023-09-19T00:54:32;17.50;98.10
43099;DHT22;28715;51.988;6.020;2023-09-19T00:56:59;17.50;98.00
43099;DHT22;28715;51.988;6.020;2023-09-19T00:59:24;17.50;98.00
43099;DHT22;28715;51.988;6.020;2023-09-19T01:01:50;17.50;97.90
43099;DHT22;28715;51.988;6.020;2023-09-19T01:04:19;17.50;97.90
43099;DHT22;28715;51.988;6.020;2023-09-19T01:06:45;17.40;98.00
43099;DHT22;28715;51.988;6.020;2023-09-19T01:09:11;17.40;98.10
43099;DHT22;28715;51.988;6.020;2023-09-19T01:11:43;17.40;98.20
43099;DHT22;28715;51.988;6.020;2023-09-19T01:14:16;17.40;98.20
43099;DHT22;28715;51.988;6.020;2023-09-19T01:16:48;17.40;98.30
43099;DHT22;28715;51.988;6.020;2023-09-19T01:19:22;17.40;98.40
43099;DHT22;28715;51.988;6.020;2023-09-19T01:21:57;17.30;98.40
43099;DHT22;28715;51.988;6.020;2023-09-19T01:24:34;17.30;98.60
43099;DHT22;28715;51.988;6.020;2023-09-19T01:27:23;17.20;98.60
43099;DHT22;28715;51.988;6.020;2023-09-19T01:29:50;17.20;98.70
43099;DHT22;28715;51.988;6.020;2023-09-19T01:32:17;17.20;98.70
43099;DHT22;28715;51.988;6.020;2023-09-19T01:34:54;17.20;98.70
43099;DHT22;28715;51.988;6.020;2023-09-19T01:37:23;17.20;98.60
43099;DHT22;28715;51.988;6.020;2023-09-19T01:39:57;17.20;98.50
43099;DHT22;28715;51.988;6.020;2023-09-19T01:43:11;17.20;98.60
43099;DHT22;28715;51.988;6.020;2023-09-19T01:45:15;17.20;98.40
43099;DHT22;28715;51.988;6.020;2023-09-19T01:47:51;17.20;98.40
43099;DHT22;28715;51.988;6.020;2023-09-19T01:55:50;17.10;98.20
43099;DHT22;28715;51.988;6.020;2023-09-19T01:58:21;17.10;98.10
43099;DHT22;28715;51.988;6.020;2023-09-19T02:00:48;17.10;98.20
43099;DHT22;28715;51.988;6.020;2023-09-19T02:03:17;17.10;98.00
43099;DHT22;28715;51.988;6.020;2023-09-19T02:05:48;17.10;98.00
43099;DHT22;28715;51.988;6.020;2023-09-19T02:08:15;17.10;98.00
43099;DHT22;28715;51.988;6.020;2023-09-19T02:10:42;17.00;97.80
43099;DHT22;28715;51.988;6.020;2023-09-19T02:13:07;17.00;97.90
43099;DHT22;28715;51.988;6.020;2023-09-19T02:15:33;17.00;97.90
43099;DHT22;28715;51.988;6.020;2023-09-19T02:17:59;17.00;97.90
43099;DHT22;28715;51.988;6.020;2023-09-19T02:20:25;16.90;97.70
43099;DHT22;28715;51.988;6.020;2023-09-19T02:22:51;16.90;97.70
43099;DHT22;28715;51.988;6.020;2023-09-19T02:25:17;16.80;97.60
43099;DHT22;28715;51.988;6.020;2023-09-19T02:27:44;16.80;97.50
43099;DHT22;28715;51.988;6.020;2023-09-19T02:30:09;16.80;97.90
43099;DHT22;28715;51.988;6.020;2023-09-19T02:32:35;16.70;97.50
43099;DHT22;28715;51.988;6.020;2023-09-19T02:35:04;16.80;97.40
43099;DHT22;28715;51.988;6.020;2023-09-19T02:37:30;16.70;97.30
43099;DHT22;28715;51.988;6.020;2023-09-19T02:39:56;16.70;97.10
43099;DHT22;28715;51.988;6.020;2023-09-19T02:42:21;16.60;97.20
43099;DHT22;28715;51.988;6.020;2023-09-19T02:44:47;16.60;97.20
43099;DHT22;28715;51.988;6.020;2023-09-19T02:47:13;16.60;97.20
43099;DHT22;28715;51.988;6.020;2023-09-19T02:49:40;16.50;97.10
43099;DHT22;28715;51.988;6.020;2023-09-19T02:52:06;16.50;97.20
43099;DHT22;28715;51.988;6.020;2023-09-19T02:54:32;16.40;97.10
43099;DHT22;28715;51.988;6.020;2023-09-19T02:56:58;16.40;97.20
43099;DHT22;28715;51.988;6.020;2023-09-19T02:59:24;16.40;97.10
43099;DHT22;28715;51.988;6.020;2023-09-19T03:01:50;16.40;97.20
43099;DHT22;28715;51.988;6.020;2023-09-19T03:04:15;16.40;97.10
43099;DHT22;28715;51.988;6.020;2023-09-19T03:06:45;16.30;96.90
43099;DHT22;28715;51.988;6.020;2023-09-19T03:09:11;16.30;96.90
43099;DHT22;28715;51.988;6.020;2023-09-19T03:11:36;16.20;96.90
43099;DHT22;28715;51.988;6.020;2023-09-19T03:14:02;16.20;96.90
43099;DHT22;28715;51.988;6.020;2023-09-19T03:16:28;16.20;96.80
43099;DHT22;28715;51.988;6.020;2023-09-19T03:18:53;16.20;96.60
43099;DHT22;28715;51.988;6.020;2023-09-19T03:21:19;16.10;96.60
43099;DHT22;28715;51.988;6.020;2023-09-19T03:23:44;16.10;96.60
43099;DHT22;28715;51.988;6.020;2023-09-19T03:26:11;16.10;96.50
43099;DHT22;28715;51.988;6.020;2023-09-19T03:28:37;16.00;96.40
43099;DHT22;28715;51.988;6.020;2023-09-19T03:31:03;16.00;96.40
43099;DHT22;28715;51.988;6.020;2023-09-19T03:33:29;16.00;96.40
43099;DHT22;28715;51.988;6.020;2023-09-19T03:35:58;16.00;96.20
43099;DHT22;28715;51.988;6.020;2023-09-19T03:38:24;15.90;96.30
43099;DHT22;28715;51.988;6.020;2023-09-19T03:40:50;15.80;96.50
43099;DHT22;28715;51.988;6.020;2023-09-19T03:43:15;15.80;96.10
43099;DHT22;28715;51.988;6.020;2023-09-19T03:45:41;15.70;96.00
43099;DHT22;28715;51.988;6.020;2023-09-19T03:48:10;15.70;96.00
43099;DHT22;28715;51.988;6.020;2023-09-19T03:50:36;15.70;96.00
43099;DHT22;28715;51.988;6.020;2023-09-19T03:53:01;15.70;96.00
43099;DHT22;28715;51.988;6.020;2023-09-19T03:55:27;15.70;95.80
43099;DHT22;28715;51.988;6.020;2023-09-19T03:57:53;15.70;95.80
43099;DHT22;28715;51.988;6.020;2023-09-19T04:00:18;15.70;95.80
43099;DHT22;28715;51.988;6.020;2023-09-19T04:02:51;15.70;95.70
43099;DHT22;28715;51.988;6.020;2023-09-19T04:05:17;15.70;95.60
43099;DHT22;28715;51.988;6.020;2023-09-19T04:07:42;15.70;95.50
43099;DHT22;28715;51.988;6.020;2023-09-19T04:10:08;15.70;95.50
43099;DHT22;28715;51.988;6.020;2023-09-19T04:12:40;15.70;95.50
43099;DHT22;28715;51.988;6.020;2023-09-19T04:15:05;15.70;95.40
43099;DHT22;28715;51.988;6.020;2023-09-19T04:17:31;15.70;95.50
43099;DHT22;28715;51.988;6.020;2023-09-19T04:20:00;15.70;95.50
43099;DHT22;28715;51.988;6.020;2023-09-19T04:22:25;15.70;95.50
43099;DHT22;28715;51.988;6.020;2023-09-19T04:24:50;15.70;95.30
43099;DHT22;28715;51.988;6.020;2023-09-19T04:27:16;15.70;95.30
43099;DHT22;28715;51.988;6.020;2023-09-19T04:29:42;15.70;95.20
43099;DHT22;28715;51.988;6.020;2023-09-19T04:32:07;15.70;95.20
43099;DHT22;28715;51.988;6.020;2023-09-19T04:34:33;15.70;95.20
43099;DHT22;28715;51.988;6.020;2023-09-19T04:36:59;15.70;95.20
43099;DHT22;28715;51.988;6.020;2023-09-19T04:39:26;15.70;95.00
43099;DHT22;28715;51.988;6.020;2023-09-19T04:41:52;15.70;95.10
43099;DHT22;28715;51.988;6.020;2023-09-19T04:44:18;15.70;95.10
43099;DHT22;28715;51.988;6.020;2023-09-19T04:46:44;15.70;95.10
43099;DHT22;28715;51.988;6.020;2023-09-19T04:49:09;15.70;95.00
43099;DHT22;28715;51.988;6.020;2023-09-19T04:51:35;15.70;95.00
43099;DHT22;28715;51.988;6.020;2023-09-19T04:54:01;15.70;94.90
43099;DHT22;28715;51.988;6.020;2023-09-19T04:56:28;15.70;95.10
43099;DHT22;28715;51.988;6.020;2023-09-19T04:58:57;15.70;95.10
43099;DHT22;28715;51.988;6.020;2023-09-19T05:01:23;15.70;94.90
43099;DHT22;28715;51.988;6.020;2023-09-19T05:03:49;15.70;95.10
43099;DHT22;28715;51.988;6.020;2023-09-19T05:06:18;15.60;95.10
43099;DHT22;28715;51.988;6.020;2023-09-19T05:08:46;15.60;95.10
43099;DHT22;28715;51.988;6.020;2023-09-19T05:11:18;15.60;95.10
43099;DHT22;28715;51.988;6.020;2023-09-19T05:13:44;15.60;95.20
43099;DHT22;28715;51.988;6.020;2023-09-19T05:16:09;15.60;95.30
43099;DHT22;28715;51.988;6.020;2023-09-19T05:18:35;15.60;95.40
43099;DHT22;28715;51.988;6.020;2023-09-19T05:21:07;15.60;95.30
43099;DHT22;28715;51.988;6.020;2023-09-19T05:23:33;15.60;95.40
43099;DHT22;28715;51.988;6.020;2023-09-19T05:26:02;15.60;95.40
43099;DHT22;28715;51.988;6.020;2023-09-19T05:28:29;15.60;95.50
43099;DHT22;28715;51.988;6.020;2023-09-19T05:30:55;15.60;95.60
43099;DHT22;28715;51.988;6.020;2023-09-19T05:33:20;15.60;95.60
43099;DHT22;28715;51.988;6.020;2023-09-19T05:35:47;15.60;95.60
43099;DHT22;28715;51.988;6.020;2023-09-19T05:38:13;15.70;95.60
43099;DHT22;28715;51.988;6.020;2023-09-19T05:40:39;15.70;95.50
43099;DHT22;28715;51.988;6.020;2023-09-19T05:43:07;15.70;95.60
43099;DHT22;28715;51.988;6.020;2023-09-19T05:45:33;15.70;95.60
43099;DHT22;28715;51.988;6.020;2023-09-19T05:48:06;15.70;95.70
43099;DHT22;28715;51.988;6.020;2023-09-19T05:50:33;15.70;95.70
43099;DHT22;28715;51.988;6.020;2023-09-19T05:52:59;15.80;95.70
43099;DHT22;28715;51.988;6.020;2023-09-19T05:55:24;15.80;95.80
43099;DHT22;28715;51.988;6.020;2023-09-19T05:57:50;15.80;95.70
43099;DHT22;28715;51.988;6.020;2023-09-19T06:00:17;15.90;95.90
43099;DHT22;28715;51.988;6.020;2023-09-19T06:02:43;15.90;95.90
43099;DHT22;28715;51.988;6.020;2023-09-19T06:05:10;15.90;95.80
43099;DHT22;28715;51.988;6.020;2023-09-19T06:07:36;15.90;95.80
43099;DHT22;28715;51.988;6.020;2023-09-19T06:10:05;15.90;95.90
43099;DHT22;28715;51.988;6.020;2023-09-19T06:12:32;15.90;95.90
43099;DHT22;28715;51.988;6.020;2023-09-19T06:15:04;15.90;95.90
43099;DHT22;28715;51.988;6.020;2023-09-19T06:17:31;16.00;96.00
43099;DHT22;28715;51.988;6.020;2023-09-19T06:19:56;16.00;96.00
43099;DHT22;28715;51.988;6.020;2023-09-19T06:22:22;16.00;96.10
43099;DHT22;28715;51.988;6.020;2023-09-19T06:24:47;16.10;96.00
43099;DHT22;28715;51.988;6.020;2023-09-19T06:27:13;16.10;96.00
43099;DHT22;28715;51.988;6.020;2023-09-19T06:29:39;16.10;96.00
43099;DHT22;28715;51.988;6.020;2023-09-19T06:32:08;16.10;96.00
43099;DHT22;28715;51.988;6.020;2023-09-19T06:34:34;16.10;96.20
43099;DHT22;28715;51.988;6.020;2023-09-19T06:36:59;16.20;96.30
43099;DHT22;28715;51.988;6.020;2023-09-19T06:39:25;16.20;96.30
43099;DHT22;28715;51.988;6.020;2023-09-19T06:41:51;16.20;96.30
43099;DHT22;28715;51.988;6.020;2023-09-19T06:44:19;16.30;96.30
43099;DHT22;28715;51.988;6.020;2023-09-19T06:46:46;16.30;96.30
43099;DHT22;28715;51.988;6.020;2023-09-19T06:49:15;16.40;96.30
43099;DHT22;28715;51.988;6.020;2023-09-19T06:51:40;16.40;96.20
43099;DHT22;28715;51.988;6.020;2023-09-19T06:54:08;16.50;96.30
43099;DHT22;28715;51.988;6.020;2023-09-19T06:56:33;16.50;96.20
43099;DHT22;28715;51.988;6.020;2023-09-19T06:58:59;16.50;96.30
43099;DHT22;28715;51.988;6.020;2023-09-19T07:01:25;16.60;96.20
43099;DHT22;28715;51.988;6.020;2023-09-19T07:03:51;16.60;96.30
43099;DHT22;28715;51.988;6.020;2023-09-19T07:06:26;16.60;96.30
43099;DHT22;28715;51.988;6.020;2023-09-19T07:08:51;16.60;96.30
43099;DHT22;28715;51.988;6.020;2023-09-19T07:11:23;16.60;96.30
43099;DHT22;28715;51.988;6.020;2023-09-19T07:13:49;16.60;96.20
43099;DHT22;28715;51.988;6.020;2023-09-19T07:16:15;16.70;96.30
43099;DHT22;28715;51.988;6.020;2023-09-19T07:18:52;16.80;96.10
43099;DHT22;28715;51.988;6.020;2023-09-19T07:21:24;16.80;96.30
43099;DHT22;28715;51.988;6.020;2023-09-19T07:23:55;16.90;96.30
43099;DHT22;28715;51.988;6.020;2023-09-19T07:26:21;16.90;96.10
43099;DHT22;28715;51.988;6.020;2023-09-19T07:28:46;16.90;96.00
43099;DHT22;28715;51.988;6.020;2023-09-19T07:31:15;17.00;96.10
43099;DHT22;28715;51.988;6.020;2023-09-19T07:33:40;17.10;96.10
43099;DHT22;28715;51.988;6.020;2023-09-19T07:36:09;17.20;96.10
43099;DHT22;28715;51.988;6.020;2023-09-19T07:38:41;17.30;95.90
43099;DHT22;28715;51.988;6.020;2023-09-19T07:41:17;17.40;95.80
43099;DHT22;28715;51.988;6.020;2023-09-19T07:43:52;17.60;95.80
43099;DHT22;28715;51.988;6.020;2023-09-19T07:46:23;17.70;95.30
43099;DHT22;28715;51.988;6.020;2023-09-19T07:48:56;17.80;95.20
43099;DHT22;28715;51.988;6.020;2023-09-19T07:51:35;17.90;94.90
43099;DHT22;28715;51.988;6.020;2023-09-19T07:54:01;18.00;94.90
43099;DHT22;28715;51.988;6.020;2023-09-19T07:56:27;18.00;94.70
43099;DHT22;28715;51.988;6.020;2023-09-19T07:58:56;18.20;94.60
43099;DHT22;28715;51.988;6.020;2023-09-19T08:04:13;18.30;94.00
43099;DHT22;28715;51.988;6.020;2023-09-19T08:06:45;18.40;94.20
43099;DHT22;28715;51.988;6.020;2023-09-19T08:09:13;18.60;94.10
43099;DHT22;28715;51.988;6.020;2023-09-19T08:14:36;19.00;93.60
43099;DHT22;28715;51.988;6.020;2023-09-19T08:17:01;19.20;93.00
43099;DHT22;28715;51.988;6.020;2023-09-19T08:19:32;19.20;92.80
43099;DHT22;28715;51.988;6.020;2023-09-19T08:22:11;19.40;92.70
43099;DHT22;28715;51.988;6.020;2023-09-19T08:24:37;19.40;92.50
43099;DHT22;28715;51.988;6.020;2023-09-19T08:27:03;19.50;92.80
43099;DHT22;28715;51.988;6.020;2023-09-19T08:29:30;19.50;92.70
43099;DHT22;28715;51.988;6.020;2023-09-19T08:31:56;19.60;92.50
43099;DHT22;28715;51.988;6.020;2023-09-19T08:34:25;19.80;92.50
43099;DHT22;28715;51.988;6.020;2023-09-19T08:36:51;20.00;92.40
43099;DHT22;28715;51.988;6.020;2023-09-19T08:39:18;20.10;92.20
43099;DHT22;28715;51.988;6.020;2023-09-19T08:41:44;20.20;91.80
43099;DHT22;28715;51.988;6.020;2023-09-19T08:44:10;20.30;92.10
43099;DHT22;28715;51.988;6.020;2023-09-19T08:46:36;20.30;91.70
43099;DHT22;28715;51.988;6.020;2023-09-19T08:49:04;20.30;91.70
43099;DHT22;28715;51.988;6.020;2023-09-19T08:51:43;20.30;91.90
43099;DHT22;28715;51.988;6.020;2023-09-19T08:54:24;20.30;92.00
43099;DHT22;28715;51.988;6.020;2023-09-19T08:56:52;20.40;92.00
43099;DHT22;28715;51.988;6.020;2023-09-19T08:59:22;20.60;91.70
43099;DHT22;28715;51.988;6.020;2023-09-19T09:01:54;20.70;91.60
43099;DHT22;28715;51.988;6.020;2023-09-19T09:04:27;20.70;91.60
43099;DHT22;28715;51.988;6.020;2023-09-19T09:06:52;20.80;91.60
43099;DHT22;28715;51.988;6.020;2023-09-19T09:09:20;20.90;91.40
43099;DHT22;28715;51.988;6.020;2023-09-19T09:14:32;20.80;90.90
43099;DHT22;28715;51.988;6.020;2023-09-19T09:16:59;20.80;90.70
43099;DHT22;28715;51.988;6.020;2023-09-19T09:19:30;20.70;90.80
43099;DHT22;28715;51.988;6.020;2023-09-19T09:22:06;20.60;91.20
43099;DHT22;28715;51.988;6.020;2023-09-19T09:24:31;20.70;90.80
43099;DHT22;28715;51.988;6.020;2023-09-19T09:27:06;20.80;91.30
43099;DHT22;28715;51.988;6.020;2023-09-19T09:29:47;21.00;91.20
43099;DHT22;28715;51.988;6.020;2023-09-19T09:32:39;21.20;90.20
43099;DHT22;28715;51.988;6.020;2023-09-19T09:35:07;21.50;89.80
43099;DHT22;28715;51.988;6.020;2023-09-19T09:37:44;21.60;90.20
43099;DHT22;28715;51.988;6.020;2023-09-19T09:40:15;21.70;88.90
43099;DHT22;28715;51.988;6.020;2023-09-19T09:42:41;21.70;88.80
43099;DHT22;28715;51.988;6.020;2023-09-19T09:45:20;21.70;89.20
43099;DHT22;28715;51.988;6.020;2023-09-19T09:47:59;21.80;89.40
43099;DHT22;28715;51.988;6.020;2023-09-19T09:50:29;22.10;88.30
43099;DHT22;28715;51.988;6.020;2023-09-19T09:53:28;22.10;86.90
43099;DHT22;28715;51.988;6.020;2023-09-19T09:56:01;22.10;86.50
43099;DHT22;28715;51.988;6.020;2023-09-19T09:58:30;22.10;87.50
43099;DHT22;28715;51.988;6.020;2023-09-19T10:01:00;22.20;84.40
43099;DHT22;28715;51.988;6.020;2023-09-19T10:06:00;21.80;86.70
43099;DHT22;28715;51.988;6.020;2023-09-19T10:11:17;21.90;86.20
43099;DHT22;28715;51.988;6.020;2023-09-19T10:13:44;22.00;86.20
43099;DHT22;28715;51.988;6.020;2023-09-19T10:16:12;22.00;86.10
43099;DHT22;28715;51.988;6.020;2023-09-19T10:18:39;22.00;87.40
43099;DHT22;28715;51.988;6.020;2023-09-19T10:21:30;22.20;85.10
43099;DHT22;28715;51.988;6.020;2023-09-19T10:23:57;22.20;86.80
43099;DHT22;28715;51.988;6.020;2023-09-19T10:26:23;22.40;85.00
43099;DHT22;28715;51.988;6.020;2023-09-19T10:28:50;22.30;84.50
43099;DHT22;28715;51.988;6.020;2023-09-19T10:31:21;22.30;85.90
43099;DHT22;28715;51.988;6.020;2023-09-19T10:33:53;22.20;84.70
43099;DHT22;28715;51.988;6.020;2023-09-19T10:36:20;22.30;85.90
43099;DHT22;28715;51.988;6.020;2023-09-19T10:38:46;22.30;85.90
43099;DHT22;28715;51.988;6.020;2023-09-19T10:41:13;22.30;84.50
43099;DHT22;28715;51.988;6.020;2023-09-19T10:43:39;22.30;85.90
43099;DHT22;28715;51.988;6.020;2023-09-19T10:46:10;22.10;86.00
43099;DHT22;28715;51.988;6.020;2023-09-19T10:48:37;22.00;86.50
43099;DHT22;28715;51.988;6.020;2023-09-19T10:53:31;21.80;86.80
43099;DHT22;28715;51.988;6.020;2023-09-19T10:55:59;21.80;86.70
43099;DHT22;28715;51.988;6.020;2023-09-19T10:58:28;21.70;87.10
43099;DHT22;28715;51.988;6.020;2023-09-19T11:00:58;21.60;87.90
43099;DHT22;28715;51.988;6.020;2023-09-19T11:03:37;21.50;87.80
43099;DHT22;28715;51.988;6.020;2023-09-19T11:06:15;21.40;88.30
43099;DHT22;28715;51.988;6.020;2023-09-19T11:09:03;21.30;87.60
43099;DHT22;28715;51.988;6.020;2023-09-19T11:22:14;20.90;89.70
43099;DHT22;28715;51.988;6.020;2023-09-19T11:24:39;20.90;89.70
43099;DHT22;28715;51.988;6.020;2023-09-19T11:27:13;20.80;88.90
43099;DHT22;28715;51.988;6.020;2023-09-19T11:29:39;20.80;89.30
43099;DHT22;28715;51.988;6.020;2023-09-19T11:32:08;20.90;89.60
43099;DHT22;28715;51.988;6.020;2023-09-19T11:39:37;21.10;88.70
43099;DHT22;28715;51.988;6.020;2023-09-19T11:42:40;21.20;89.20
43099;DHT22;28715;51.988;6.020;2023-09-19T11:44:51;21.20;89.40
43099;DHT22;28715;51.988;6.020;2023-09-19T11:47:17;21.30;89.30
43099;DHT22;28715;51.988;6.020;2023-09-19T11:49:47;21.20;87.30
43099;DHT22;28715;51.988;6.020;2023-09-19T11:52:21;21.20;87.80
43099;DHT22;28715;51.988;6.020;2023-09-19T11:54:54;21.20;86.70
43099;DHT22;28715;51.988;6.020;2023-09-19T11:57:22;21.10;87.20
43099;DHT22;28715;51.988;6.020;2023-09-19T11:59:47;21.20;87.80
43099;DHT22;28715;51.988;6.020;2023-09-19T12:02:14;21.30;87.60
43099;DHT22;28715;51.988;6.020;2023-09-19T12:04:46;21.50;87.80
43099;DHT22;28715;51.988;6.020;2023-09-19T12:07:15;21.60;87.30
43099;DHT22;28715;51.988;6.020;2023-09-19T12:09:44;21.70;87.10
43099;DHT22;28715;51.988;6.020;2023-09-19T12:12:46;21.70;85.50
43099;DHT22;28715;51.988;6.020;2023-09-19T12:15:05;21.80;86.30
43099;DHT22;28715;51.988;6.020;2023-09-19T12:17:38;21.70;85.80
43099;DHT22;28715;51.988;6.020;2023-09-19T12:20:04;21.70;85.10
43099;DHT22;28715;51.988;6.020;2023-09-19T12:22:42;21.70;85.50
43099;DHT22;28715;51.988;6.020;2023-09-19T12:25:08;21.70;85.80
43099;DHT22;28715;51.988;6.020;2023-09-19T12:30:09;21.70;86.10
43099;DHT22;28715;51.988;6.020;2023-09-19T12:32:35;21.70;86.20
43099;DHT22;28715;51.988;6.020;2023-09-19T12:35:07;21.90;85.10
43099;DHT22;28715;51.988;6.020;2023-09-19T12:37:36;22.00;85.80
43099;DHT22;28715;51.988;6.020;2023-09-19T12:40:05;22.00;85.60
43099;DHT22;28715;51.988;6.020;2023-09-19T12:42:42;22.00;85.40
43099;DHT22;28715;51.988;6.020;2023-09-19T12:45:08;21.80;84.50
43099;DHT22;28715;51.988;6.020;2023-09-19T12:47:34;21.70;84.50
43099;DHT22;28715;51.988;6.020;2023-09-19T12:50:13;21.60;84.80
43099;DHT22;28715;51.988;6.020;2023-09-19T12:52:41;21.50;85.20
43099;DHT22;28715;51.988;6.020;2023-09-19T12:55:06;21.40;85.10
43099;DHT22;28715;51.988;6.020;2023-09-19T12:57:33;21.30;86.00
43099;DHT22;28715;51.988;6.020;2023-09-19T13:00:00;21.30;86.40
43099;DHT22;28715;51.988;6.020;2023-09-19T13:02:26;21.30;87.10
43099;DHT22;28715;51.988;6.020;2023-09-19T13:04:54;21.30;86.90
43099;DHT22;28715;51.988;6.020;2023-09-19T13:07:43;21.30;86.20
43099;DHT22;28715;51.988;6.020;2023-09-19T13:10:09;21.20;86.40
43099;DHT22;28715;51.988;6.020;2023-09-19T13:12:36;21.20;87.00
43099;DHT22;28715;51.988;6.020;2023-09-19T13:15:11;21.20;87.30
43099;DHT22;28715;51.988;6.020;2023-09-19T13:17:46;21.10;87.30
43099;DHT22;28715;51.988;6.020;2023-09-19T13:20:26;21.10;87.70
43099;DHT22;28715;51.988;6.020;2023-09-19T13:22:57;21.20;88.10
43099;DHT22;28715;51.988;6.020;2023-09-19T13:25:31;21.20;88.20
43099;DHT22;28715;51.988;6.020;2023-09-19T13:27:58;21.20;87.80
43099;DHT22;28715;51.988;6.020;2023-09-19T13:30:26;21.20;88.00
43099;DHT22;28715;51.988;6.020;2023-09-19T13:32:52;21.30;87.60
43099;DHT22;28715;51.988;6.020;2023-09-19T13:35:19;21.30;87.70
43099;DHT22;28715;51.988;6.020;2023-09-19T13:37:47;21.30;87.20
43099;DHT22;28715;51.988;6.020;2023-09-19T13:40:16;21.30;87.90
43099;DHT22;28715;51.988;6.020;2023-09-19T13:42:42;21.30;88.00
43099;DHT22;28715;51.988;6.020;2023-09-19T13:45:09;21.30;88.50
43099;DHT22;28715;51.988;6.020;2023-09-19T13:47:38;21.20;88.50
43099;DHT22;28715;51.988;6.020;2023-09-19T13:50:04;21.20;87.60
43099;DHT22;28715;51.988;6.020;2023-09-19T13:52:30;21.20;88.00
43099;DHT22;28715;51.988;6.020;2023-09-19T13:54:56;21.20;88.30
43099;DHT22;28715;51.988;6.020;2023-09-19T13:57:28;21.20;88.90
43099;DHT22;28715;51.988;6.020;2023-09-19T13:59:54;21.20;87.60
43099;DHT22;28715;51.988;6.020;2023-09-19T14:02:20;21.10;88.40
43099;DHT22;28715;51.988;6.020;2023-09-19T14:04:48;21.10;88.40
43099;DHT22;28715;51.988;6.020;2023-09-19T14:07:13;21.10;88.30
43099;DHT22;28715;51.988;6.020;2023-09-19T14:09:40;21.00;88.40
43099;DHT22;28715;51.988;6.020;2023-09-19T14:12:06;21.10;89.00
43099;DHT22;28715;51.988;6.020;2023-09-19T14:14:32;21.20;89.00
43099;DHT22;28715;51.988;6.020;2023-09-19T14:16:57;21.30;88.90
43099;DHT22;28715;51.988;6.020;2023-09-19T14:19:29;21.40;88.60
43099;DHT22;28715;51.988;6.020;2023-09-19T14:21:54;21.50;88.00
43099;DHT22;28715;51.988;6.020;2023-09-19T14:24:23;21.50;87.80
43099;DHT22;28715;51.988;6.020;2023-09-19T14:26:49;21.60;88.70
43099;DHT22;28715;51.988;6.020;2023-09-19T14:29:14;21.60;88.20
43099;DHT22;28715;51.988;6.020;2023-09-19T14:31:40;21.70;88.10
43099;DHT22;28715;51.988;6.020;2023-09-19T14:34:06;21.70;87.50
43099;DHT22;28715;51.988;6.020;2023-09-19T14:36:31;21.60;87.30
43099;DHT22;28715;51.988;6.020;2023-09-19T14:38:57;21.60;87.40
43099;DHT22;28715;51.988;6.020;2023-09-19T14:41:23;21.60;87.30
43099;DHT22;28715;51.988;6.020;2023-09-19T14:43:54;21.50;87.30
43099;DHT22;28715;51.988;6.020;2023-09-19T14:46:20;21.50;87.40
43099;DHT22;28715;51.988;6.020;2023-09-19T14:48:46;21.40;87.40
43099;DHT22;28715;51.988;6.020;2023-09-19T14:51:14;21.30;87.40
43099;DHT22;28715;51.988;6.020;2023-09-19T14:53:40;21.30;87.60
43099;DHT22;28715;51.988;6.020;2023-09-19T14:56:07;21.30;88.20
43099;DHT22;28715;51.988;6.020;2023-09-19T14:58:33;21.30;88.20
43099;DHT22;28715;51.988;6.020;2023-09-19T15:01:03;21.30;88.30
43099;DHT22;28715;51.988;6.020;2023-09-19T15:03:29;21.30;88.60
43099;DHT22;28715;51.988;6.020;2023-09-19T15:06:02;21.30;88.30
43099;DHT22;28715;51.988;6.020;2023-09-19T15:08:28;21.20;88.00
43099;DHT22;28715;51.988;6.020;2023-09-19T15:10:53;21.20;88.20
43099;DHT22;28715;51.988;6.020;2023-09-19T15:13:19;21.10;88.00
43099;DHT22;28715;51.988;6.020;2023-09-19T15:15:48;21.10;88.30
43099;DHT22;28715;51.988;6.020;2023-09-19T15:18:16;21.10;89.10
43099;DHT22;28715;51.988;6.020;2023-09-19T15:20:45;21.00;89.00
43099;DHT22;28715;51.988;6.020;2023-09-19T15:23:10;21.00;89.30
43099;DHT22;28715;51.988;6.020;2023-09-19T15:25:37;21.00;89.20
43099;DHT22;28715;51.988;6.020;2023-09-19T15:28:03;20.90;89.60
43099;DHT22;28715;51.988;6.020;2023-09-19T15:30:37;21.00;89.80
43099;DHT22;28715;51.988;6.020;2023-09-19T15:33:02;20.90;90.00
43099;DHT22;28715;51.988;6.020;2023-09-19T15:35:28;20.90;90.20
43099;DHT22;28715;51.988;6.020;2023-09-19T15:37:53;20.90;90.00
43099;DHT22;28715;51.988;6.020;2023-09-19T15:40:21;20.90;89.80
43099;DHT22;28715;51.988;6.020;2023-09-19T15:42:49;20.80;90.10
43099;DHT22;28715;51.988;6.020;2023-09-19T15:45:15;20.80;90.00
43099;DHT22;28715;51.988;6.020;2023-09-19T15:47:41;20.80;90.20
43099;DHT22;28715;51.988;6.020;2023-09-19T15:50:07;20.90;90.10
43099;DHT22;28715;51.988;6.020;2023-09-19T15:52:35;20.90;90.10
43099;DHT22;28715;51.988;6.020;2023-09-19T15:55:04;20.90;90.10
43099;DHT22;28715;51.988;6.020;2023-09-19T15:57:29;20.80;90.20
43099;DHT22;28715;51.988;6.020;2023-09-19T15:59:56;20.80;90.40
43099;DHT22;28715;51.988;6.020;2023-09-19T16:02:22;20.80;90.30
43099;DHT22;28715;51.988;6.020;2023-09-19T16:04:48;20.80;90.30
43099;DHT22;28715;51.988;6.020;2023-09-19T16:07:13;20.80;90.50
43099;DHT22;28715;51.988;6.020;2023-09-19T16:09:40;20.80;90.50
43099;DHT22;28715;51.988;6.020;2023-09-19T16:12:08;20.90;90.50
43099;DHT22;28715;51.988;6.020;2023-09-19T16:14:34;20.80;90.30
43099;DHT22;28715;51.988;6.020;2023-09-19T16:17:00;20.80;90.40